createdAt,value
2022-11-15T00:01:24.892Z,2.00
2022-11-15T00:03:55.631Z,2.04
2022-11-15T00:06:25.637Z,1.99
2022-11-15T00:08:52.472Z,2.02
2022-11-15T00:11:22.212Z,2.06
2022-11-15T00:13:48.825Z,2.03
2022-11-15T00:16:16.171Z,2.02
2022-11-15T00:18:47.795Z,1.90
2022-11-15T00:21:18.170Z,1.87
2022-11-15T00:23:44.789Z,1.94
2022-11-15T00:26:16.177Z,1.95
2022-11-15T00:28:43.304Z,1.93
2022-11-15T00:31:13.796Z,1.95
2022-11-15T00:33:40.653Z,1.95
2022-11-15T00:36:13.662Z,1.89
2022-11-15T00:38:41.401Z,1.79
2022-11-15T00:41:10.331Z,1.73
2022-11-15T00:43:37.353Z,1.69
2022-11-15T00:46:04.081Z,1.70
2022-11-15T00:48:31.784Z,1.64
2022-11-15T00:50:58.886Z,1.62
2022-11-15T00:53:25.448Z,1.60
2022-11-15T00:55:52.157Z,1.57
2022-11-15T00:58:20.165Z,1.58
2022-11-15T01:00:47.696Z,1.58
2022-11-15T01:03:14.392Z,1.59
2022-11-15T01:05:40.994Z,1.58
2022-11-15T01:08:12.751Z,1.58
2022-11-15T01:10:41.342Z,1.63
2022-11-15T01:13:07.968Z,1.62
2022-11-15T01:15:34.681Z,1.56
2022-11-15T01:18:01.305Z,1.49
2022-11-15T01:20:27.902Z,1.36
2022-11-15T01:22:55.189Z,1.24
2022-11-15T01:25:21.784Z,1.17
2022-11-15T01:27:48.508Z,1.20
2022-11-15T01:30:15.373Z,1.25
2022-11-15T01:32:42.002Z,1.25
2022-11-15T01:35:09.047Z,1.22
2022-11-15T01:37:36.398Z,1.15
2022-11-15T01:40:03.124Z,1.19
2022-11-15T01:42:29.737Z,1.09
2022-11-15T01:44:56.447Z,1.04
2022-11-15T01:47:29.192Z,1.13
2022-11-15T01:50:03.729Z,1.06
2022-11-15T01:52:32.577Z,1.07
2022-11-15T01:55:05.907Z,1.04
2022-11-15T01:57:32.713Z,0.99
2022-11-15T02:00:01.607Z,0.92
2022-11-15T02:02:28.705Z,0.83
2022-11-15T02:04:55.375Z,0.79
2022-11-15T02:07:23.235Z,0.80
2022-11-15T02:09:51.893Z,0.80
2022-11-15T02:12:22.393Z,0.83
2022-11-15T02:14:54.566Z,0.85
2022-11-15T02:17:50.920Z,0.81
2022-11-15T02:20:48.389Z,0.76
2022-11-15T02:23:58.031Z,0.80
2022-11-15T02:26:40.823Z,0.74
2022-11-15T02:29:16.698Z,0.70
2022-11-15T02:31:45.987Z,0.72
2022-11-15T02:34:42.558Z,0.74
2022-11-15T02:37:30.319Z,0.73
2022-11-15T02:40:12.678Z,0.74
2022-11-15T02:43:08.548Z,0.74
2022-11-15T02:45:42.765Z,0.71
2022-11-15T02:48:11.098Z,0.70
2022-11-15T02:50:38.079Z,0.61
2022-11-15T02:53:04.906Z,0.62
2022-11-15T02:55:34.394Z,0.57
2022-11-15T02:58:48.203Z,0.44
2022-11-15T03:01:23.619Z,0.37
2022-11-15T03:03:56.067Z,0.36
2022-11-15T03:06:39.271Z,0.39
2022-11-15T03:09:32.889Z,0.38
2022-11-15T03:12:09.785Z,0.32
2022-11-15T03:14:44.154Z,0.37
2022-11-15T03:17:31.817Z,0.34
2022-11-15T03:20:01.701Z,0.34
2022-11-15T03:22:30.863Z,0.37
2022-11-15T03:25:01.960Z,0.33
2022-11-15T03:27:37.017Z,0.28
2022-11-15T03:30:07.453Z,0.33
2022-11-15T03:32:43.153Z,0.30
2022-11-15T03:35:14.778Z,0.37
2022-11-15T03:37:50.838Z,0.34
2022-11-15T03:40:18.837Z,0.30
2022-11-15T03:43:15.188Z,0.36
2022-11-15T03:45:51.198Z,0.39
2022-11-15T03:48:34.927Z,0.39
2022-11-15T03:51:02.351Z,0.34
2022-11-15T03:53:29.988Z,0.24
2022-11-15T03:55:56.792Z,0.22
2022-11-15T03:58:23.359Z,0.19
2022-11-15T04:00:51.390Z,0.19
2022-11-15T04:03:17.982Z,0.24
2022-11-15T04:05:44.544Z,0.27
2022-11-15T04:08:11.237Z,0.29
2022-11-15T04:10:39.148Z,0.29
2022-11-15T04:13:06.071Z,0.24
2022-11-15T04:15:33.039Z,0.16
2022-11-15T04:17:59.734Z,0.07
2022-11-15T04:20:50.599Z,0.11
2022-11-15T04:23:38.571Z,0.09
2022-11-15T04:26:12.368Z,0.04
2022-11-15T04:28:59.598Z,0.05
2022-11-15T04:31:26.319Z,0.03
2022-11-15T04:33:53.727Z,-0.05
2022-11-15T04:36:39.922Z,-0.14
2022-11-15T04:39:06.753Z,-0.13
2022-11-15T04:41:33.829Z,-0.19
2022-11-15T04:44:00.472Z,-0.13
2022-11-15T04:46:27.360Z,-0.13
2022-11-15T04:48:58.626Z,-0.20
2022-11-15T04:51:26.333Z,-0.20
2022-11-15T04:53:53.117Z,-0.15
2022-11-15T04:56:20.477Z,-0.09
2022-11-15T04:58:50.088Z,-0.09
2022-11-15T05:01:18.613Z,-0.12
2022-11-15T05:04:05.535Z,-0.11
2022-11-15T05:06:32.701Z,-0.10
2022-11-15T05:08:59.431Z,-0.19
2022-11-15T05:11:26.804Z,-0.24
2022-11-15T05:13:53.417Z,-0.35
2022-11-15T05:16:20.032Z,-0.40
2022-11-15T05:18:46.775Z,-0.38
2022-11-15T05:21:16.379Z,-0.23
2022-11-15T05:23:43.024Z,-0.20
2022-11-15T05:26:10.401Z,-0.26
2022-11-15T05:28:38.165Z,-0.25
2022-11-15T05:31:10.345Z,-0.31
2022-11-15T05:33:41.879Z,-0.38
2022-11-15T05:36:10.963Z,-0.42
2022-11-15T05:38:38.519Z,-0.49
2022-11-15T05:41:06.586Z,-0.41
2022-11-15T05:43:36.376Z,-0.37
2022-11-15T05:46:05.313Z,-0.35
2022-11-15T05:48:34.054Z,-0.29
2022-11-15T05:51:01.973Z,-0.33
2022-11-15T05:53:29.409Z,-0.41
2022-11-15T05:55:56.249Z,-0.45
2022-11-15T05:58:24.387Z,-0.47
2022-11-15T06:00:51.064Z,-0.41
2022-11-15T06:03:17.971Z,-0.44
2022-11-15T06:05:44.672Z,-0.52
2022-11-15T06:08:12.637Z,-0.50
2022-11-15T06:10:39.259Z,-0.49
2022-11-15T06:13:06.074Z,-0.53
2022-11-15T06:15:35.888Z,-0.50
2022-11-15T06:18:02.616Z,-0.49
2022-11-15T06:20:30.454Z,-0.44
2022-11-15T06:23:03.617Z,-0.36
2022-11-15T06:25:31.225Z,-0.40
2022-11-15T06:27:59.894Z,-0.44
2022-11-15T06:30:27.627Z,-0.44
2022-11-15T06:33:05.556Z,-0.40
2022-11-15T06:35:35.278Z,-0.31
2022-11-15T06:38:07.498Z,-0.21
2022-11-15T06:40:36.405Z,-0.19
2022-11-15T06:43:04.392Z,-0.14
2022-11-15T06:45:31.668Z,-0.12
2022-11-15T06:47:59.344Z,-0.17
2022-11-15T06:50:27.025Z,-0.30
2022-11-15T06:52:53.852Z,-0.18
2022-11-15T06:55:21.717Z,-0.05
2022-11-15T06:57:50.467Z,0.06
2022-11-15T07:00:19.841Z,0.07
2022-11-15T07:02:47.491Z,0.16
2022-11-15T07:05:14.883Z,0.11
2022-11-15T07:07:41.819Z,0.12
2022-11-15T07:10:09.775Z,0.28
2022-11-15T07:12:36.717Z,0.23
2022-11-15T07:15:03.689Z,0.29
2022-11-15T07:17:31.692Z,0.53
2022-11-15T07:19:59.517Z,0.86
2022-11-15T07:22:26.134Z,1.27
2022-11-15T07:24:52.888Z,1.97
2022-11-15T07:27:19.728Z,3.07
2022-11-15T07:29:46.654Z,3.88
2022-11-15T07:32:13.586Z,4.66
2022-11-15T07:34:40.292Z,5.08
2022-11-15T07:37:06.908Z,6.07
2022-11-15T07:39:33.568Z,6.85
2022-11-15T07:42:21.741Z,6.92
2022-11-15T07:44:48.498Z,7.04
2022-11-15T07:47:15.268Z,7.44
2022-11-15T07:49:41.906Z,7.90
2022-11-15T07:52:08.553Z,8.31
2022-11-15T07:54:35.233Z,8.85
2022-11-15T07:57:06.975Z,9.02
2022-11-15T07:59:35.794Z,8.35
2022-11-15T08:02:02.978Z,8.84
2022-11-15T08:04:29.866Z,8.84
2022-11-15T08:06:56.642Z,9.46
2022-11-15T08:09:23.290Z,10.04
2022-11-15T08:11:49.906Z,10.01
2022-11-15T08:14:16.491Z,10.48
2022-11-15T08:16:43.074Z,10.52
2022-11-15T08:19:09.711Z,11.90
2022-11-15T08:21:36.345Z,11.98
2022-11-15T08:24:03.345Z,11.47
2022-11-15T08:26:31.116Z,11.37
2022-11-15T08:28:57.746Z,11.23
2022-11-15T08:31:24.423Z,12.00
2022-11-15T08:33:52.286Z,12.23
2022-11-15T08:36:19.096Z,12.70
2022-11-15T08:38:45.715Z,12.78
2022-11-15T08:41:23.072Z,13.15
2022-11-15T08:43:49.679Z,12.89
2022-11-15T08:46:16.505Z,13.70
2022-11-15T08:48:43.114Z,13.52
2022-11-15T08:51:10.034Z,12.81
2022-11-15T08:53:38.593Z,12.78
2022-11-15T08:56:10.255Z,13.44
2022-11-15T08:58:37.612Z,14.20
2022-11-15T09:01:05.503Z,13.80
2022-11-15T09:03:32.434Z,14.42
2022-11-15T09:06:01.246Z,15.21
2022-11-15T09:08:48.140Z,14.41
2022-11-15T09:11:17.667Z,15.28
2022-11-15T09:13:44.361Z,15.40
2022-11-15T09:16:13.393Z,15.36
2022-11-15T09:18:39.987Z,15.82
2022-11-15T09:21:06.568Z,15.63
2022-11-15T09:23:33.152Z,16.59
2022-11-15T09:26:05.505Z,16.75
2022-11-15T09:28:34.130Z,17.13
2022-11-15T09:31:04.503Z,17.43
2022-11-15T09:33:31.767Z,16.19
2022-11-15T09:36:03.901Z,16.97
2022-11-15T09:38:31.030Z,17.90
2022-11-15T09:41:15.747Z,18.45
2022-11-15T09:44:07.164Z,17.55
2022-11-15T09:46:36.481Z,17.27
2022-11-15T09:49:03.767Z,17.52
2022-11-15T09:51:34.643Z,16.86
2022-11-15T09:57:16.464Z,17.39
2022-11-15T10:00:12.428Z,16.81
2022-11-15T10:03:02.147Z,17.19
2022-11-15T10:05:32.545Z,17.99
2022-11-15T10:08:19.373Z,18.28
2022-11-15T10:10:50.220Z,18.44
2022-11-15T10:13:26.373Z,18.22
2022-11-15T10:15:55.789Z,18.78
2022-11-15T10:18:34.456Z,18.99
2022-11-15T10:21:14.336Z,18.48
2022-11-15T10:23:40.943Z,18.62
2022-11-15T10:26:12.514Z,18.18
2022-11-15T10:28:39.255Z,18.74
2022-11-15T10:31:23.375Z,18.77
2022-11-15T10:33:50.479Z,17.66
2022-11-15T10:36:26.697Z,18.12
2022-11-15T10:38:54.798Z,18.68
2022-11-15T10:41:31.976Z,18.21
2022-11-15T10:44:07.832Z,18.82
2022-11-15T10:46:47.400Z,17.93
2022-11-15T10:49:33.934Z,18.65
2022-11-15T10:52:00.422Z,19.24
2022-11-15T10:54:46.360Z,18.98
2022-11-15T10:57:18.570Z,19.04
2022-11-15T10:59:56.960Z,19.27
2022-11-15T11:02:35.235Z,19.73
2022-11-15T11:05:24.633Z,19.56
2022-11-15T11:08:20.018Z,18.90
2022-11-15T11:11:02.792Z,18.84
2022-11-15T11:13:32.714Z,19.34
2022-11-15T11:16:14.619Z,19.44
2022-11-15T11:18:41.491Z,19.30
2022-11-15T11:21:15.553Z,19.28
2022-11-15T11:24:06.602Z,18.45
2022-11-15T11:27:08.888Z,18.28
2022-11-15T11:29:50.928Z,18.64
2022-11-15T11:32:30.614Z,18.81
2022-11-15T11:35:23.967Z,18.99
2022-11-15T11:38:33.944Z,19.06
2022-11-15T11:41:05.408Z,18.70
2022-11-15T11:43:54.166Z,18.48
2022-11-15T11:46:39.058Z,18.41
2022-11-15T11:49:11.717Z,17.45
2022-11-15T11:51:46.965Z,16.37
2022-11-15T11:54:31.905Z,15.70
2022-11-15T11:57:02.108Z,14.75
2022-11-15T12:00:18.755Z,14.43
2022-11-15T12:03:01.512Z,14.08
2022-11-15T12:05:38.664Z,13.85
2022-11-15T12:08:46.877Z,13.71
2022-11-15T12:11:44.310Z,13.68
2022-11-15T12:14:40.360Z,13.55
2022-11-15T12:17:11.265Z,13.50
2022-11-15T12:19:38.325Z,13.41
2022-11-15T12:22:13.041Z,13.23
2022-11-15T12:24:44.867Z,13.20
2022-11-15T12:27:32.367Z,13.26
2022-11-15T12:30:03.839Z,13.06
2022-11-15T12:32:40.807Z,13.06
2022-11-15T12:35:24.401Z,13.03
2022-11-15T12:37:56.266Z,13.09
2022-11-15T12:40:31.757Z,13.08
2022-11-15T12:43:00.894Z,12.98
2022-11-15T12:45:34.646Z,13.04
2022-11-15T12:48:17.366Z,13.13
2022-11-15T12:50:56.071Z,12.99
2022-11-15T12:53:25.680Z,12.93
2022-11-15T12:56:14.193Z,12.94
2022-11-15T12:59:02.214Z,12.96
2022-11-15T13:01:31.916Z,12.93
2022-11-15T13:04:20.542Z,12.86
2022-11-15T13:06:48.534Z,12.93
2022-11-15T13:09:33.542Z,12.95
2022-11-15T13:12:03.894Z,12.88
2022-11-15T13:14:46.147Z,12.82
2022-11-15T13:17:33.898Z,12.73
2022-11-15T13:20:08.397Z,12.80
2022-11-15T13:22:52.510Z,12.80
2022-11-15T13:25:20.329Z,12.83
2022-11-15T13:27:49.839Z,12.76
2022-11-15T13:30:30.800Z,12.75
2022-11-15T13:33:01.769Z,12.71
2022-11-15T13:35:31.529Z,12.81
2022-11-15T13:38:05.166Z,13.10
2022-11-15T13:40:40.117Z,13.18
2022-11-15T13:43:25.585Z,13.08
2022-11-15T13:46:10.758Z,12.91
2022-11-15T13:48:37.779Z,12.68
2022-11-15T13:51:09.794Z,12.55
2022-11-15T13:53:41.210Z,12.42
2022-11-15T13:56:08.587Z,12.32
2022-11-15T13:58:40.096Z,12.21
2022-11-15T14:01:07.377Z,12.12
2022-11-15T14:03:48.232Z,12.05
2022-11-15T14:06:21.679Z,11.97
2022-11-15T14:09:10.324Z,11.98
2022-11-15T14:11:37.628Z,11.90
2022-11-15T14:14:10.237Z,11.85
2022-11-15T14:16:39.053Z,11.82
2022-11-15T14:19:07.802Z,11.74
2022-11-15T14:21:34.702Z,11.65
2022-11-15T14:24:22.636Z,11.59
2022-11-15T14:26:49.656Z,11.55
2022-11-15T14:29:28.169Z,11.46
2022-11-15T14:32:06.629Z,11.35
2022-11-15T14:34:36.179Z,11.26
2022-11-15T14:37:02.787Z,11.18
2022-11-15T14:39:29.428Z,11.09
2022-11-15T14:41:56.053Z,10.99
2022-11-15T14:44:23.956Z,10.89
2022-11-15T14:46:50.591Z,10.81
2022-11-15T14:49:17.419Z,10.72
2022-11-15T14:51:44.123Z,10.63
2022-11-15T14:54:11.799Z,10.51
2022-11-15T14:56:38.506Z,10.41
2022-11-15T14:59:05.223Z,10.30
2022-11-15T15:01:31.844Z,10.18
2022-11-15T15:03:59.645Z,10.10
2022-11-15T15:06:26.595Z,10.04
2022-11-15T15:08:53.240Z,9.95
2022-11-15T15:11:26.264Z,9.83
2022-11-15T15:13:55.137Z,9.71
2022-11-15T15:16:21.683Z,9.64
2022-11-15T15:18:48.927Z,9.64
2022-11-15T15:21:22.991Z,9.59
2022-11-15T15:23:50.136Z,9.47
2022-11-15T15:26:16.723Z,9.38
2022-11-15T15:28:43.524Z,9.32
2022-11-15T15:31:11.217Z,9.28
2022-11-15T15:33:38.450Z,9.18
2022-11-15T15:36:05.475Z,8.99
2022-11-15T15:38:33.783Z,8.83
2022-11-15T15:41:03.008Z,8.72
2022-11-15T15:43:31.117Z,8.60
2022-11-15T15:45:57.786Z,8.47
2022-11-15T15:48:24.809Z,8.41
2022-11-15T15:50:52.778Z,8.43
2022-11-15T15:53:19.433Z,8.52
2022-11-15T15:55:46.066Z,8.40
2022-11-15T15:58:15.093Z,8.38
2022-11-15T16:00:41.815Z,8.30
2022-11-15T16:03:11.389Z,8.25
2022-11-15T16:05:38.031Z,8.16
2022-11-15T16:08:05.522Z,7.99
2022-11-15T16:10:35.258Z,7.86
2022-11-15T16:13:01.945Z,7.78
2022-11-15T16:15:31.654Z,7.75
2022-11-15T16:18:00.188Z,7.63
2022-11-15T16:20:36.922Z,7.55
2022-11-15T16:23:08.934Z,7.48
2022-11-15T16:25:46.658Z,7.44
2022-11-15T16:28:26.523Z,7.28
2022-11-15T16:31:19.469Z,7.14
2022-11-15T16:33:46.821Z,7.03
2022-11-15T16:36:29.508Z,7.07
2022-11-15T16:38:56.410Z,7.05
2022-11-15T16:41:23.081Z,7.01
2022-11-15T16:43:49.756Z,6.89
2022-11-15T16:46:24.848Z,6.77
2022-11-15T16:48:52.455Z,6.68
2022-11-15T16:51:19.002Z,6.60
2022-11-15T16:53:45.715Z,6.52
2022-11-15T16:56:21.262Z,6.46
2022-11-15T16:58:48.036Z,6.41
2022-11-15T17:01:20.972Z,6.44
2022-11-15T17:03:47.808Z,6.39
2022-11-15T17:06:15.338Z,6.35
2022-11-15T17:08:42.287Z,6.39
2022-11-15T17:11:09.414Z,6.34
2022-11-15T17:13:36.343Z,6.38
2022-11-15T17:16:07.678Z,6.38
2022-11-15T17:18:35.381Z,6.35
2022-11-15T17:21:25.870Z,6.25
2022-11-15T17:23:54.854Z,6.16
2022-11-15T17:26:29.885Z,6.13
2022-11-15T17:29:00.387Z,6.00
2022-11-15T17:31:27.419Z,5.97
2022-11-15T17:33:54.081Z,5.87
2022-11-15T17:36:21.200Z,5.77
2022-11-15T17:38:57.951Z,5.69
2022-11-15T17:41:28.429Z,5.59
2022-11-15T17:44:00.449Z,5.57
2022-11-15T17:46:28.623Z,5.43
2022-11-15T17:48:56.287Z,5.35
2022-11-15T17:51:24.233Z,5.23
2022-11-15T17:53:51.682Z,5.20
2022-11-15T17:56:21.999Z,5.13
2022-11-15T17:58:58.471Z,5.10
2022-11-15T18:01:26.470Z,5.27
2022-11-15T18:03:54.047Z,5.25
2022-11-15T18:06:22.950Z,5.25
2022-11-15T18:08:51.984Z,5.38
2022-11-15T18:11:43.323Z,5.35
2022-11-15T18:14:15.381Z,5.27
2022-11-15T18:16:42.642Z,5.22
2022-11-15T18:19:13.421Z,5.18
2022-11-15T18:22:01.013Z,5.17
2022-11-15T18:24:31.988Z,5.20
2022-11-15T18:27:00.041Z,5.23
2022-11-15T18:29:27.242Z,5.18
2022-11-15T18:31:57.700Z,5.16
2022-11-15T18:34:27.149Z,5.14
2022-11-15T18:36:53.982Z,5.11
2022-11-15T18:39:20.809Z,5.01
2022-11-15T18:41:49.254Z,4.96
2022-11-15T18:44:16.308Z,5.04
2022-11-15T18:47:04.467Z,5.00
2022-11-15T18:49:31.104Z,4.96
2022-11-15T18:51:57.828Z,4.91
2022-11-15T18:57:10.971Z,4.92
2022-11-15T18:59:37.821Z,4.87
2022-11-15T19:02:05.570Z,4.86
2022-11-15T19:04:32.314Z,4.85
2022-11-15T19:06:59.013Z,4.78
2022-11-15T19:09:32.810Z,4.93
2022-11-15T19:11:59.711Z,5.01
2022-11-15T19:14:27.856Z,5.02
2022-11-15T19:17:14.518Z,5.05
2022-11-15T19:19:41.253Z,5.07
2022-11-15T19:22:09.225Z,5.11
2022-11-15T19:24:58.942Z,5.14
2022-11-15T19:27:25.619Z,5.17
2022-11-15T19:29:52.219Z,5.24
2022-11-15T19:32:18.815Z,5.29
2022-11-15T19:34:46.448Z,5.31
2022-11-15T19:37:13.036Z,5.36
2022-11-15T19:39:41.236Z,5.44
2022-11-15T19:42:08.218Z,5.49
2022-11-15T19:44:34.816Z,5.55
2022-11-15T19:47:01.447Z,5.52
2022-11-15T19:49:28.089Z,5.39
2022-11-15T19:51:54.778Z,5.30
2022-11-15T19:54:21.477Z,5.27
2022-11-15T19:56:48.115Z,5.22
2022-11-15T19:59:15.378Z,5.10
2022-11-15T20:01:42.747Z,5.06
2022-11-15T20:04:10.376Z,5.11
2022-11-15T20:06:40.875Z,5.15
2022-11-15T20:09:07.998Z,5.10
2022-11-15T20:11:34.746Z,5.10
2022-11-15T20:14:02.456Z,5.08
2022-11-15T20:16:29.673Z,5.09
2022-11-15T20:18:56.393Z,5.06
2022-11-15T20:21:23.566Z,5.04
2022-11-15T20:23:51.126Z,5.00
2022-11-15T20:26:19.783Z,5.04
2022-11-15T20:28:50.356Z,5.06
2022-11-15T20:31:19.827Z,5.08
2022-11-15T20:33:54.649Z,5.08
2022-11-15T20:36:21.806Z,5.08
2022-11-15T20:39:04.118Z,5.08
2022-11-15T20:41:32.184Z,5.02
2022-11-15T20:43:59.762Z,5.07
2022-11-15T20:46:35.066Z,5.08
2022-11-15T20:49:01.897Z,5.05
2022-11-15T20:51:28.679Z,5.12
2022-11-15T20:53:56.338Z,5.11
2022-11-15T20:56:23.790Z,5.08
2022-11-15T20:58:55.724Z,5.08
2022-11-15T21:01:25.228Z,5.12
2022-11-15T21:03:56.575Z,5.18
2022-11-15T21:06:24.769Z,5.24
2022-11-15T21:09:12.132Z,5.25
2022-11-15T21:11:58.267Z,5.20
2022-11-15T21:14:25.078Z,5.19
2022-11-15T21:16:53.338Z,5.28
2022-11-15T21:22:03.595Z,5.25
2022-11-15T21:24:30.588Z,5.24
2022-11-15T21:27:01.587Z,5.20
2022-11-15T21:29:29.222Z,5.18
2022-11-15T21:31:56.930Z,5.17
2022-11-15T21:34:24.006Z,5.18
2022-11-15T21:36:51.111Z,5.20
2022-11-15T21:39:17.826Z,5.22
2022-11-15T21:41:47.093Z,5.20
2022-11-15T21:44:14.966Z,5.15
2022-11-15T21:46:43.253Z,5.11
2022-11-15T21:49:10.432Z,5.11
2022-11-15T21:54:19.897Z,5.11
2022-11-15T21:56:47.821Z,5.09
2022-11-15T21:59:16.159Z,5.09
2022-11-15T22:02:15.195Z,5.10
2022-11-15T22:08:19.681Z,5.13
2022-11-15T22:13:57.255Z,5.00
2022-11-15T22:16:24.396Z,4.99
2022-11-15T22:18:54.111Z,5.05
2022-11-15T22:21:21.570Z,5.06
2022-11-15T22:23:48.547Z,5.05
2022-11-15T22:26:23.000Z,5.07
2022-11-15T22:28:50.760Z,5.07
2022-11-15T22:31:18.108Z,5.10
2022-11-15T22:33:45.214Z,5.06
2022-11-15T22:36:16.009Z,4.90
2022-11-15T22:38:43.709Z,4.93
2022-11-15T22:41:11.166Z,4.94
2022-11-15T22:43:38.280Z,4.97
2022-11-15T22:46:06.668Z,4.99
2022-11-15T22:48:37.500Z,4.95
2022-11-15T22:51:05.966Z,4.89
2022-11-15T22:53:33.396Z,4.77
2022-11-15T22:56:02.975Z,4.73
2022-11-15T22:58:33.223Z,4.66
2022-11-15T23:01:03.312Z,4.68
2022-11-15T23:03:34.659Z,4.63
2022-11-15T23:06:06.545Z,4.59
2022-11-15T23:08:34.631Z,4.58
2022-11-15T23:11:26.460Z,4.61
2022-11-15T23:13:55.987Z,4.59
2022-11-15T23:16:23.546Z,4.59
2022-11-15T23:19:17.654Z,4.59
2022-11-15T23:22:05.600Z,4.58
2022-11-15T23:24:33.964Z,4.55
2022-11-15T23:27:05.034Z,4.52
2022-11-15T23:29:31.984Z,4.50
2022-11-15T23:32:19.940Z,4.49
2022-11-15T23:35:06.909Z,4.53
2022-11-15T23:37:33.884Z,4.53
2022-11-15T23:40:01.845Z,4.57
2022-11-15T23:42:28.983Z,4.58
2022-11-15T23:44:56.032Z,4.63
2022-11-15T23:47:23.010Z,4.66
2022-11-15T23:49:50.738Z,4.63
2022-11-15T23:52:19.177Z,4.58
2022-11-15T23:54:48.209Z,4.54
2022-11-15T23:57:18.267Z,4.53
2022-11-15T23:59:45.671Z,4.50
